createdAt,value
2018-09-22T00:00:08.286Z,22.80
2018-09-22T00:00:40.074Z,22.80
2018-09-22T00:01:11.896Z,22.80
2018-09-22T00:01:43.748Z,22.80
2018-09-22T00:02:15.715Z,22.70
2018-09-22T00:02:47.568Z,22.80
2018-09-22T00:03:19.857Z,22.80
2018-09-22T00:03:51.669Z,22.80
2018-09-22T00:04:23.648Z,22.80
2018-09-22T00:04:55.677Z,22.70
2018-09-22T00:05:27.605Z,22.80
2018-09-22T00:05:59.666Z,22.80
2018-09-22T00:06:31.565Z,22.80
2018-09-22T00:07:03.431Z,22.70
2018-09-22T00:07:35.397Z,22.80
2018-09-22T00:08:07.240Z,22.80
2018-09-22T00:08:39.115Z,22.80
2018-09-22T00:09:11.074Z,22.80
2018-09-22T00:09:42.904Z,22.80
2018-09-22T00:10:14.738Z,22.80
2018-09-22T00:10:46.569Z,22.70
2018-09-22T00:11:18.438Z,22.80
2018-09-22T00:11:50.255Z,22.70
2018-09-22T00:12:22.087Z,22.80
2018-09-22T00:12:54.089Z,22.70
2018-09-22T00:13:26.007Z,22.70
2018-09-22T00:13:57.858Z,22.70
2018-09-22T00:14:29.709Z,22.70
2018-09-22T00:15:01.548Z,22.70
2018-09-22T00:15:33.616Z,22.70
2018-09-22T00:16:05.469Z,22.70
2018-09-22T00:16:37.405Z,22.70
2018-09-22T00:17:09.574Z,22.70
2018-09-22T00:17:41.488Z,22.70
2018-09-22T00:18:13.397Z,22.70
2018-09-22T00:18:45.509Z,22.70
2018-09-22T00:19:17.574Z,22.70
2018-09-22T00:19:49.406Z,22.70
2018-09-22T00:20:21.259Z,22.70
2018-09-22T00:20:53.114Z,22.70
2018-09-22T00:21:25.181Z,22.70
2018-09-22T00:21:57.123Z,22.70
2018-09-22T00:22:29.261Z,22.70
2018-09-22T00:23:01.317Z,22.70
2018-09-22T00:23:33.220Z,22.70
2018-09-22T00:24:05.241Z,22.70
2018-09-22T00:24:37.102Z,22.70
2018-09-22T00:25:08.960Z,22.70
2018-09-22T00:25:40.751Z,22.70
2018-09-22T00:26:12.639Z,22.70
2018-09-22T00:26:44.598Z,22.70
2018-09-22T00:27:16.566Z,22.70
2018-09-22T00:27:48.760Z,22.70
2018-09-22T00:28:20.725Z,22.70
2018-09-22T00:28:52.689Z,22.70
2018-09-22T00:29:24.985Z,22.70
2018-09-22T00:29:56.951Z,22.70
2018-09-22T00:30:28.821Z,22.70
2018-09-22T00:31:00.949Z,22.70
2018-09-22T00:31:32.810Z,22.70
2018-09-22T00:32:04.759Z,22.70
2018-09-22T00:32:36.615Z,22.70
2018-09-22T00:33:08.470Z,22.70
2018-09-22T00:33:40.484Z,22.70
2018-09-22T00:34:12.417Z,22.70
2018-09-22T00:34:44.294Z,22.70
2018-09-22T00:35:16.259Z,22.70
2018-09-22T00:35:48.114Z,22.60
2018-09-22T00:36:20.007Z,22.70
2018-09-22T00:36:51.943Z,22.60
2018-09-22T00:37:23.758Z,22.70
2018-09-22T00:37:55.793Z,22.70
2018-09-22T00:38:27.693Z,22.70
2018-09-22T00:38:59.530Z,22.70
2018-09-22T00:39:31.637Z,22.70
2018-09-22T00:40:03.478Z,22.70
2018-09-22T00:40:35.479Z,22.70
2018-09-22T00:41:07.306Z,22.70
2018-09-22T00:41:39.132Z,22.70
2018-09-22T00:42:10.991Z,22.70
2018-09-22T00:42:42.925Z,22.70
2018-09-22T00:43:14.787Z,22.70
2018-09-22T00:43:46.613Z,22.70
2018-09-22T00:44:18.524Z,22.70
2018-09-22T00:44:50.421Z,22.70
2018-09-22T00:45:22.246Z,22.70
2018-09-22T00:45:54.084Z,22.70
2018-09-22T00:46:25.993Z,22.70
2018-09-22T00:46:57.850Z,22.70
2018-09-22T00:47:29.700Z,22.70
2018-09-22T00:48:01.582Z,22.70
2018-09-22T00:48:33.600Z,22.70
2018-09-22T00:49:05.711Z,22.70
2018-09-22T00:49:37.686Z,22.70
2018-09-22T00:50:09.534Z,22.70
2018-09-22T00:50:41.422Z,22.60
2018-09-22T00:51:13.240Z,22.70
2018-09-22T00:51:45.055Z,22.70
2018-09-22T00:52:17.077Z,22.70
2018-09-22T00:52:49.010Z,22.70
2018-09-22T00:53:20.941Z,22.70
2018-09-22T00:53:52.781Z,22.70
2018-09-22T00:54:24.593Z,22.70
2018-09-22T00:54:56.511Z,22.70
2018-09-22T00:55:28.399Z,22.70
2018-09-22T00:56:00.243Z,22.70
2018-09-22T00:56:32.161Z,22.70
2018-09-22T00:57:04.012Z,22.70
2018-09-22T00:57:35.981Z,22.70
2018-09-22T00:58:07.868Z,22.70
2018-09-22T00:58:39.708Z,22.60
2018-09-22T00:59:11.720Z,22.60
2018-09-22T00:59:43.627Z,22.60
2018-09-22T01:00:15.807Z,22.60
2018-09-22T01:00:47.612Z,22.60
2018-09-22T01:01:19.468Z,22.60
2018-09-22T01:01:51.356Z,22.60
2018-09-22T01:02:23.291Z,22.60
2018-09-22T01:02:55.131Z,22.60
2018-09-22T01:03:26.988Z,22.60
2018-09-22T01:03:58.831Z,22.60
2018-09-22T01:04:30.629Z,22.60
2018-09-22T01:05:02.580Z,22.60
2018-09-22T01:05:34.443Z,22.60
2018-09-22T01:06:06.336Z,22.60
2018-09-22T01:06:38.171Z,22.60
2018-09-22T01:07:10.009Z,22.60
2018-09-22T01:07:41.860Z,22.60
2018-09-22T01:08:13.707Z,22.60
2018-09-22T01:08:45.540Z,22.60
2018-09-22T01:09:17.728Z,22.60
2018-09-22T01:09:49.767Z,22.60
2018-09-22T01:10:21.548Z,22.60
2018-09-22T01:10:53.378Z,22.60
2018-09-22T01:11:25.232Z,22.60
2018-09-22T01:11:57.118Z,22.60
2018-09-22T01:12:28.972Z,22.60
2018-09-22T01:13:00.882Z,22.60
2018-09-22T01:13:33.002Z,22.60
2018-09-22T01:14:04.947Z,22.60
2018-09-22T01:14:36.868Z,22.60
2018-09-22T01:15:08.949Z,22.60
2018-09-22T01:15:40.866Z,22.60
2018-09-22T01:16:12.905Z,22.60
2018-09-22T01:16:44.943Z,22.60
2018-09-22T01:17:17.029Z,22.60
2018-09-22T01:17:49.112Z,22.60
2018-09-22T01:18:20.951Z,22.60
2018-09-22T01:18:52.848Z,22.60
2018-09-22T01:19:24.681Z,22.60
2018-09-22T01:19:56.521Z,22.60
2018-09-22T01:20:28.381Z,22.60
2018-09-22T01:21:00.387Z,22.60
2018-09-22T01:21:32.216Z,22.60
2018-09-22T01:22:04.309Z,22.60
2018-09-22T01:22:36.154Z,22.50
2018-09-22T01:23:08.078Z,22.60
2018-09-22T01:23:40.030Z,22.60
2018-09-22T01:24:12.188Z,22.60
2018-09-22T01:24:44.080Z,22.60
2018-09-22T01:25:15.944Z,22.60
2018-09-22T01:25:47.732Z,22.60
2018-09-22T01:26:19.610Z,22.60
2018-09-22T01:26:51.493Z,22.60
2018-09-22T01:27:23.388Z,22.60
2018-09-22T01:27:55.439Z,22.60
2018-09-22T01:28:27.268Z,22.60
2018-09-22T01:28:59.097Z,22.60
2018-09-22T01:29:30.952Z,22.60
2018-09-22T01:30:02.885Z,22.60
2018-09-22T01:30:34.736Z,22.60
2018-09-22T01:31:06.730Z,22.60
2018-09-22T01:31:38.583Z,22.60
2018-09-22T01:32:10.433Z,22.60
2018-09-22T01:32:42.399Z,22.60
2018-09-22T01:33:14.506Z,22.60
2018-09-22T01:33:46.478Z,22.60
2018-09-22T01:34:18.419Z,22.60
2018-09-22T01:34:50.288Z,22.60
2018-09-22T01:35:22.303Z,22.60
2018-09-22T01:35:54.162Z,22.60
2018-09-22T01:36:26.058Z,22.60
2018-09-22T01:36:58.060Z,22.60
2018-09-22T01:37:29.948Z,22.60
2018-09-22T01:38:01.792Z,22.60
2018-09-22T01:38:33.697Z,22.60
2018-09-22T01:39:05.718Z,22.60
2018-09-22T01:39:37.806Z,22.60
2018-09-22T01:40:09.659Z,22.60
2018-09-22T01:40:41.554Z,22.60
2018-09-22T01:41:13.427Z,22.60
2018-09-22T01:41:45.270Z,22.60
2018-09-22T01:42:17.236Z,22.60
2018-09-22T01:42:49.065Z,22.60
2018-09-22T01:43:21.458Z,22.50
2018-09-22T01:43:53.449Z,22.50
2018-09-22T01:44:25.304Z,22.50
2018-09-22T01:44:57.114Z,22.50
2018-09-22T01:45:28.979Z,22.60
2018-09-22T01:46:00.808Z,22.50
2018-09-22T01:46:32.645Z,22.50
2018-09-22T01:47:04.445Z,22.50
2018-09-22T01:47:36.284Z,22.50
2018-09-22T01:48:08.090Z,22.50
2018-09-22T01:48:39.928Z,22.50
2018-09-22T01:49:11.865Z,22.50
2018-09-22T01:49:43.718Z,22.50
2018-09-22T01:50:15.588Z,22.50
2018-09-22T01:50:47.497Z,22.50
2018-09-22T01:51:19.368Z,22.50
2018-09-22T01:51:51.174Z,22.50
2018-09-22T01:52:23.017Z,22.50
2018-09-22T01:52:55.048Z,22.50
2018-09-22T01:53:27.019Z,22.50
2018-09-22T01:53:58.975Z,22.50
2018-09-22T01:54:30.875Z,22.50
2018-09-22T01:55:02.987Z,22.50
2018-09-22T01:55:34.859Z,22.50
2018-09-22T01:56:06.838Z,22.50
2018-09-22T01:56:38.663Z,22.50
2018-09-22T01:57:10.486Z,22.50
2018-09-22T01:57:42.467Z,22.50
2018-09-22T01:58:14.339Z,22.50
2018-09-22T01:58:46.426Z,22.50
2018-09-22T01:59:18.395Z,22.50
2018-09-22T01:59:50.304Z,22.60
2018-09-22T02:00:22.262Z,22.60
2018-09-22T02:00:54.309Z,22.60
2018-09-22T02:01:26.168Z,22.50
2018-09-22T02:01:58.073Z,22.50
2018-09-22T02:02:30.053Z,22.50
2018-09-22T02:03:01.933Z,22.50
2018-09-22T02:03:33.832Z,22.50
2018-09-22T02:04:05.745Z,22.50
2018-09-22T02:04:37.643Z,22.50
2018-09-22T02:05:09.482Z,22.50
2018-09-22T02:05:41.346Z,22.50
2018-09-22T02:06:13.223Z,22.50
2018-09-22T02:06:45.088Z,22.50
2018-09-22T02:07:17.055Z,22.50
2018-09-22T02:07:49.100Z,22.50
2018-09-22T02:08:21.188Z,22.50
2018-09-22T02:08:53.031Z,22.50
2018-09-22T02:09:24.950Z,22.50
2018-09-22T02:09:56.843Z,22.50
2018-09-22T02:10:28.867Z,22.50
2018-09-22T02:11:01.020Z,22.50
2018-09-22T02:11:33.216Z,22.50
2018-09-22T02:12:05.056Z,22.50
2018-09-22T02:12:37.104Z,22.50
2018-09-22T02:13:08.938Z,22.50
2018-09-22T02:13:40.874Z,22.50
2018-09-22T02:14:12.812Z,22.50
2018-09-22T02:14:44.784Z,22.50
2018-09-22T02:15:16.589Z,22.50
2018-09-22T02:15:48.510Z,22.50
2018-09-22T02:16:20.327Z,22.50
2018-09-22T02:16:52.127Z,22.50
2018-09-22T02:17:24.134Z,22.50
2018-09-22T02:17:55.972Z,22.50
2018-09-22T02:18:28.000Z,22.40
2018-09-22T02:18:59.904Z,22.50
2018-09-22T02:19:31.775Z,22.50
2018-09-22T02:20:03.563Z,22.50
2018-09-22T02:20:35.517Z,22.50
2018-09-22T02:21:07.354Z,22.50
2018-09-22T02:21:39.278Z,22.50
2018-09-22T02:22:11.101Z,22.50
2018-09-22T02:22:43.109Z,22.50
2018-09-22T02:23:14.945Z,22.50
2018-09-22T02:23:46.768Z,22.50
2018-09-22T02:24:18.628Z,22.50
2018-09-22T02:24:50.508Z,22.50
2018-09-22T02:25:22.337Z,22.50
2018-09-22T02:25:54.187Z,22.50
2018-09-22T02:26:26.070Z,22.50
2018-09-22T02:26:57.897Z,22.50
2018-09-22T02:27:29.742Z,22.50
2018-09-22T02:28:01.615Z,22.50
2018-09-22T02:28:33.410Z,22.50
2018-09-22T02:29:05.296Z,22.50
2018-09-22T02:29:37.124Z,22.50
2018-09-22T02:30:08.987Z,22.50
2018-09-22T02:30:40.885Z,22.50
2018-09-22T02:31:12.733Z,22.50
2018-09-22T02:31:44.814Z,22.50
2018-09-22T02:32:16.657Z,22.50
2018-09-22T02:32:48.604Z,22.50
2018-09-22T02:33:20.406Z,22.50
2018-09-22T02:33:52.243Z,22.50
2018-09-22T02:34:24.090Z,22.50
2018-09-22T02:34:55.896Z,22.50
2018-09-22T02:35:27.820Z,22.50
2018-09-22T02:35:59.754Z,22.50
2018-09-22T02:36:31.555Z,22.50
2018-09-22T02:37:03.474Z,22.50
2018-09-22T02:37:35.314Z,22.50
2018-09-22T02:38:07.255Z,22.50
2018-09-22T02:38:39.113Z,22.50
2018-09-22T02:39:11.071Z,22.50
2018-09-22T02:39:42.961Z,22.50
2018-09-22T02:40:14.821Z,22.50
2018-09-22T02:40:46.912Z,22.50
2018-09-22T02:41:18.750Z,22.50
2018-09-22T02:41:50.681Z,22.50
2018-09-22T02:42:22.510Z,22.50
2018-09-22T02:42:54.348Z,22.50
2018-09-22T02:43:26.320Z,22.50
2018-09-22T02:43:58.278Z,22.50
2018-09-22T02:44:30.198Z,22.50
2018-09-22T02:45:02.046Z,22.50
2018-09-22T02:45:34.034Z,22.50
2018-09-22T02:46:05.980Z,22.40
2018-09-22T02:46:38.066Z,22.40
2018-09-22T02:47:10.017Z,22.50
2018-09-22T02:47:41.935Z,22.40
2018-09-22T02:48:14.146Z,22.40
2018-09-22T02:48:46.024Z,22.40
2018-09-22T02:49:17.894Z,22.40
2018-09-22T02:49:49.954Z,22.40
2018-09-22T02:50:21.893Z,22.50
2018-09-22T02:50:53.726Z,22.50
2018-09-22T02:51:25.784Z,22.50
2018-09-22T02:51:57.855Z,22.50
2018-09-22T02:52:29.894Z,22.50
2018-09-22T02:53:01.845Z,22.50
2018-09-22T02:53:33.862Z,22.50
2018-09-22T02:54:05.723Z,22.50
2018-09-22T02:54:37.583Z,22.50
2018-09-22T02:55:09.442Z,22.50
2018-09-22T02:55:41.373Z,22.50
2018-09-22T02:56:13.166Z,22.40
2018-09-22T02:56:45.152Z,22.40
2018-09-22T02:57:17.071Z,22.50
2018-09-22T02:57:48.861Z,22.40
2018-09-22T02:58:21.037Z,22.40
2018-09-22T02:58:53.024Z,22.40
2018-09-22T02:59:25.071Z,22.40
2018-09-22T02:59:57.164Z,22.40
2018-09-22T03:00:29.144Z,22.40
2018-09-22T03:01:01.054Z,22.40
2018-09-22T03:01:33.080Z,22.40
2018-09-22T03:02:05.025Z,22.40
2018-09-22T03:02:36.939Z,22.40
2018-09-22T03:03:08.782Z,22.40
2018-09-22T03:03:40.629Z,22.40
2018-09-22T03:04:12.507Z,22.40
2018-09-22T03:04:44.458Z,22.40
2018-09-22T03:05:16.270Z,22.40
2018-09-22T03:05:48.128Z,22.40
2018-09-22T03:06:20.017Z,22.40
2018-09-22T03:06:51.903Z,22.40
2018-09-22T03:07:23.876Z,22.40
2018-09-22T03:07:55.726Z,22.40
2018-09-22T03:08:27.580Z,22.40
2018-09-22T03:08:59.507Z,22.40
2018-09-22T03:09:31.379Z,22.40
2018-09-22T03:10:03.434Z,22.40
2018-09-22T03:10:35.468Z,22.40
2018-09-22T03:11:07.325Z,22.40
2018-09-22T03:11:39.197Z,22.40
2018-09-22T03:12:11.002Z,22.40
2018-09-22T03:12:42.828Z,22.40
2018-09-22T03:13:14.688Z,22.40
2018-09-22T03:13:46.496Z,22.40
2018-09-22T03:14:18.324Z,22.40
2018-09-22T03:14:50.125Z,22.40
2018-09-22T03:15:22.045Z,22.40
2018-09-22T03:15:54.051Z,22.40
2018-09-22T03:16:25.859Z,22.40
2018-09-22T03:16:57.687Z,22.40
2018-09-22T03:17:29.605Z,22.40
2018-09-22T03:18:01.468Z,22.40
2018-09-22T03:18:33.404Z,22.40
2018-09-22T03:19:05.253Z,22.40
2018-09-22T03:19:37.406Z,22.40
2018-09-22T03:20:09.259Z,22.40
2018-09-22T03:20:41.097Z,22.40
2018-09-22T03:21:12.921Z,22.40
2018-09-22T03:21:44.789Z,22.40
2018-09-22T03:22:16.688Z,22.40
2018-09-22T03:22:48.760Z,22.40
2018-09-22T03:23:20.610Z,22.40
2018-09-22T03:23:52.436Z,22.40
2018-09-22T03:24:24.500Z,22.40
2018-09-22T03:24:56.321Z,22.40
2018-09-22T03:25:28.361Z,22.40
2018-09-22T03:26:00.251Z,22.40
2018-09-22T03:26:32.190Z,22.40
2018-09-22T03:27:04.343Z,22.40
2018-09-22T03:27:36.642Z,22.40
2018-09-22T03:28:08.463Z,22.40
2018-09-22T03:28:40.341Z,22.40
2018-09-22T03:29:12.163Z,22.40
2018-09-22T03:29:44.205Z,22.40
2018-09-22T03:30:16.034Z,22.40
2018-09-22T03:30:47.956Z,22.40
2018-09-22T03:31:19.933Z,22.40
2018-09-22T03:31:51.784Z,22.40
2018-09-22T03:32:23.635Z,22.40
2018-09-22T03:32:55.564Z,22.40
2018-09-22T03:33:27.520Z,22.40
2018-09-22T03:33:59.376Z,22.40
2018-09-22T03:34:31.448Z,22.40
2018-09-22T03:35:03.357Z,22.40
2018-09-22T03:35:35.313Z,22.40
2018-09-22T03:36:07.156Z,22.40
2018-09-22T03:36:39.311Z,22.40
2018-09-22T03:37:11.426Z,22.40
2018-09-22T03:37:43.357Z,22.40
2018-09-22T03:38:15.238Z,22.40
2018-09-22T03:38:47.326Z,22.40
2018-09-22T03:39:19.199Z,22.40
2018-09-22T03:39:51.048Z,22.40
2018-09-22T03:40:22.939Z,22.40
2018-09-22T03:40:54.924Z,22.40
2018-09-22T03:41:27.038Z,22.40
2018-09-22T03:41:59.123Z,22.40
2018-09-22T03:42:31.375Z,22.40
2018-09-22T03:43:03.289Z,22.40
2018-09-22T03:43:35.266Z,22.40
2018-09-22T03:44:07.100Z,22.40
2018-09-22T03:44:39.022Z,22.40
2018-09-22T03:45:11.082Z,22.40
2018-09-22T03:45:42.909Z,22.40
2018-09-22T03:46:14.841Z,22.40
2018-09-22T03:46:46.692Z,22.40
2018-09-22T03:47:18.507Z,22.40
2018-09-22T03:47:50.321Z,22.40
2018-09-22T03:48:22.166Z,22.40
2018-09-22T03:48:54.194Z,22.40
2018-09-22T03:49:26.052Z,22.40
2018-09-22T03:49:57.944Z,22.40
2018-09-22T03:50:30.058Z,22.40
2018-09-22T03:51:02.082Z,22.40
2018-09-22T03:51:33.927Z,22.40
2018-09-22T03:52:05.780Z,22.40
2018-09-22T03:52:38.176Z,22.40
2018-09-22T03:53:10.123Z,22.40
2018-09-22T03:53:42.019Z,22.40
2018-09-22T03:54:13.925Z,22.30
2018-09-22T03:54:46.082Z,22.40
2018-09-22T03:55:17.958Z,22.40
2018-09-22T03:55:49.907Z,22.40
2018-09-22T03:56:21.906Z,22.40
2018-09-22T03:56:53.742Z,22.40
2018-09-22T03:57:25.684Z,22.40
2018-09-22T03:57:57.606Z,22.40
2018-09-22T03:58:29.758Z,22.40
2018-09-22T03:59:01.742Z,22.40
2018-09-22T03:59:33.934Z,22.30
2018-09-22T04:00:05.913Z,22.40
2018-09-22T04:00:37.927Z,22.40
2018-09-22T04:01:09.749Z,22.40
2018-09-22T04:01:41.581Z,22.30
2018-09-22T04:02:13.832Z,22.40
2018-09-22T04:02:45.981Z,22.40
2018-09-22T04:03:17.860Z,22.40
2018-09-22T04:03:49.677Z,22.40
2018-09-22T04:04:21.708Z,22.30
2018-09-22T04:04:53.559Z,22.30
2018-09-22T04:05:25.429Z,22.40
2018-09-22T04:05:57.269Z,22.40
2018-09-22T04:06:29.139Z,22.40
2018-09-22T04:07:01.126Z,22.30
2018-09-22T04:07:32.948Z,22.30
2018-09-22T04:08:04.783Z,22.40
2018-09-22T04:08:36.698Z,22.30
2018-09-22T04:09:08.619Z,22.30
2018-09-22T04:09:40.725Z,22.30
2018-09-22T04:10:12.738Z,22.30
2018-09-22T04:10:44.559Z,22.30
2018-09-22T04:11:16.376Z,22.40
2018-09-22T04:11:48.350Z,22.40
2018-09-22T04:12:20.351Z,22.40
2018-09-22T04:12:52.382Z,22.30
2018-09-22T04:13:24.265Z,22.30
2018-09-22T04:13:56.172Z,22.40
2018-09-22T04:14:28.031Z,22.30
2018-09-22T04:15:00.074Z,22.30
2018-09-22T04:15:31.923Z,22.30
2018-09-22T04:16:03.730Z,22.30
2018-09-22T04:16:35.631Z,22.30
2018-09-22T04:17:07.583Z,22.30
2018-09-22T04:17:39.400Z,22.30
2018-09-22T04:18:11.368Z,22.30
2018-09-22T04:18:43.204Z,22.30
2018-09-22T04:19:15.038Z,22.30
2018-09-22T04:19:46.889Z,22.30
2018-09-22T04:20:18.692Z,22.30
2018-09-22T04:20:50.488Z,22.30
2018-09-22T04:21:22.288Z,22.30
2018-09-22T04:21:54.132Z,22.30
2018-09-22T04:22:25.930Z,22.30
2018-09-22T04:22:57.784Z,22.30
2018-09-22T04:23:29.619Z,22.30
2018-09-22T04:24:01.513Z,22.30
2018-09-22T04:24:33.389Z,22.30
2018-09-22T04:25:05.290Z,22.30
2018-09-22T04:25:37.140Z,22.30
2018-09-22T04:26:09.009Z,22.30
2018-09-22T04:26:40.818Z,22.30
2018-09-22T04:27:12.791Z,22.30
2018-09-22T04:27:44.871Z,22.30
2018-09-22T04:28:16.770Z,22.30
2018-09-22T04:28:48.861Z,22.30
2018-09-22T04:29:20.840Z,22.30
2018-09-22T04:29:52.700Z,22.30
2018-09-22T04:30:24.605Z,22.30
2018-09-22T04:30:56.510Z,22.30
2018-09-22T04:31:28.363Z,22.30
2018-09-22T04:32:00.309Z,22.30
2018-09-22T04:32:32.348Z,22.30
2018-09-22T04:33:04.248Z,22.30
2018-09-22T04:33:36.424Z,22.30
2018-09-22T04:34:08.240Z,22.30
2018-09-22T04:34:40.248Z,22.30
2018-09-22T04:35:12.137Z,22.30
2018-09-22T04:35:44.002Z,22.30
2018-09-22T04:36:15.908Z,22.30
2018-09-22T04:36:47.905Z,22.30
2018-09-22T04:37:19.698Z,22.30
2018-09-22T04:37:51.742Z,22.30
2018-09-22T04:38:23.638Z,22.30
2018-09-22T04:38:55.465Z,22.30
2018-09-22T04:39:27.349Z,22.30
2018-09-22T04:39:59.421Z,22.30
2018-09-22T04:40:31.449Z,22.30
2018-09-22T04:41:03.263Z,22.30
2018-09-22T04:41:35.154Z,22.30
2018-09-22T04:42:07.033Z,22.30
2018-09-22T04:42:38.881Z,22.30
2018-09-22T04:43:10.848Z,22.30
2018-09-22T04:43:42.673Z,22.30
2018-09-22T04:44:14.623Z,22.30
2018-09-22T04:44:46.465Z,22.30
2018-09-22T04:45:18.429Z,22.30
2018-09-22T04:45:50.370Z,22.20
2018-09-22T04:46:22.249Z,22.20
2018-09-22T04:46:54.114Z,22.20
2018-09-22T04:47:25.929Z,22.20
2018-09-22T04:47:57.925Z,22.30
2018-09-22T04:48:29.784Z,22.20
2018-09-22T04:49:01.849Z,22.20
2018-09-22T04:49:33.927Z,22.20
2018-09-22T04:50:05.799Z,22.30
2018-09-22T04:50:37.704Z,22.30
2018-09-22T04:51:09.650Z,22.20
2018-09-22T04:51:41.519Z,22.30
2018-09-22T04:52:13.337Z,22.20
2018-09-22T04:52:45.558Z,22.20
2018-09-22T04:53:17.443Z,22.20
2018-09-22T04:53:49.302Z,22.20
2018-09-22T04:54:21.260Z,22.20
2018-09-22T04:54:53.167Z,22.20
2018-09-22T04:55:25.128Z,22.20
2018-09-22T04:55:57.217Z,22.20
2018-09-22T04:56:29.022Z,22.20
2018-09-22T04:57:01.201Z,22.20
2018-09-22T04:57:33.057Z,22.20
2018-09-22T04:58:04.981Z,22.20
2018-09-22T04:58:37.041Z,22.20
2018-09-22T04:59:08.890Z,22.20
2018-09-22T04:59:40.866Z,22.20
2018-09-22T05:00:12.881Z,22.20
2018-09-22T05:00:44.858Z,22.20
2018-09-22T05:01:16.909Z,22.20
2018-09-22T05:01:48.708Z,22.20
2018-09-22T05:02:20.719Z,22.20
2018-09-22T05:02:52.647Z,22.20
2018-09-22T05:03:24.512Z,22.30
2018-09-22T05:03:56.473Z,22.20
2018-09-22T05:04:28.578Z,22.20
2018-09-22T05:05:00.606Z,22.20
2018-09-22T05:05:32.538Z,22.20
2018-09-22T05:06:04.323Z,22.20
2018-09-22T05:06:36.417Z,22.20
2018-09-22T05:07:08.478Z,22.20
2018-09-22T05:07:40.366Z,22.20
2018-09-22T05:08:12.273Z,22.20
2018-09-22T05:08:44.136Z,22.20
2018-09-22T05:09:16.221Z,22.20
2018-09-22T05:09:48.196Z,22.20
2018-09-22T05:10:20.142Z,22.20
2018-09-22T05:10:51.997Z,22.20
2018-09-22T05:11:24.186Z,22.20
2018-09-22T05:11:56.023Z,22.20
2018-09-22T05:12:28.048Z,22.20
2018-09-22T05:12:59.996Z,22.20
2018-09-22T05:13:31.866Z,22.20
2018-09-22T05:14:03.757Z,22.20
2018-09-22T05:14:35.647Z,22.20
2018-09-22T05:15:07.527Z,22.20
2018-09-22T05:15:39.654Z,22.20
2018-09-22T05:16:11.570Z,22.20
2018-09-22T05:16:43.431Z,22.20
2018-09-22T05:17:15.295Z,22.20
2018-09-22T05:17:47.129Z,22.20
2018-09-22T05:18:19.185Z,22.20
2018-09-22T05:18:51.018Z,22.20
2018-09-22T05:19:23.057Z,22.20
2018-09-22T05:19:54.946Z,22.20
2018-09-22T05:20:26.768Z,22.20
2018-09-22T05:20:58.806Z,22.20
2018-09-22T05:21:30.964Z,22.20
2018-09-22T05:22:02.909Z,22.20
2018-09-22T05:22:34.706Z,22.10
2018-09-22T05:23:06.622Z,22.10
2018-09-22T05:23:38.453Z,22.10
2018-09-22T05:24:10.274Z,22.10
2018-09-22T05:24:42.183Z,22.10
2018-09-22T05:25:14.306Z,22.20
2018-09-22T05:25:46.130Z,22.10
2018-09-22T05:26:18.335Z,22.20
2018-09-22T05:26:50.154Z,22.20
2018-09-22T05:27:21.987Z,22.20
2018-09-22T05:27:53.805Z,22.20
2018-09-22T05:28:25.711Z,22.20
2018-09-22T05:28:57.519Z,22.20
2018-09-22T05:29:29.378Z,22.20
2018-09-22T05:30:01.181Z,22.20
2018-09-22T05:30:33.218Z,22.20
2018-09-22T05:31:05.182Z,22.20
2018-09-22T05:31:37.067Z,22.20
2018-09-22T05:32:09.110Z,22.20
2018-09-22T05:32:41.026Z,22.20
2018-09-22T05:33:12.877Z,22.20
2018-09-22T05:33:44.709Z,22.10
2018-09-22T05:34:16.547Z,22.20
2018-09-22T05:34:48.347Z,22.20
2018-09-22T05:35:20.188Z,22.20
2018-09-22T05:35:52.031Z,22.20
2018-09-22T05:36:23.913Z,22.20
2018-09-22T05:36:55.759Z,22.20
2018-09-22T05:37:27.720Z,22.20
2018-09-22T05:37:59.850Z,22.20
2018-09-22T05:38:31.913Z,22.20
2018-09-22T05:39:03.715Z,22.20
2018-09-22T05:39:35.529Z,22.10
2018-09-22T05:40:07.409Z,22.10
2018-09-22T05:40:39.400Z,22.10
2018-09-22T05:41:11.312Z,22.10
2018-09-22T05:41:43.531Z,22.20
2018-09-22T05:42:15.541Z,22.20
2018-09-22T05:42:47.514Z,22.20
2018-09-22T05:43:19.460Z,22.10
2018-09-22T05:43:51.264Z,22.20
2018-09-22T05:44:23.107Z,22.10
2018-09-22T05:44:54.909Z,22.10
2018-09-22T05:45:26.733Z,22.10
2018-09-22T05:45:58.650Z,22.20
2018-09-22T05:46:30.535Z,22.10
2018-09-22T05:47:02.341Z,22.10
2018-09-22T05:47:34.196Z,22.20
2018-09-22T05:48:06.051Z,22.20
2018-09-22T05:48:37.920Z,22.20
2018-09-22T05:49:09.797Z,22.20
2018-09-22T05:49:41.846Z,22.20
2018-09-22T05:50:13.674Z,22.20
2018-09-22T05:50:45.507Z,22.20
2018-09-22T05:51:17.362Z,22.20
2018-09-22T05:51:49.222Z,22.10
2018-09-22T05:52:21.203Z,22.10
2018-09-22T05:52:53.171Z,22.10
2018-09-22T05:53:25.251Z,22.10
2018-09-22T05:53:57.224Z,22.20
2018-09-22T05:54:29.093Z,22.20
2018-09-22T05:55:00.984Z,22.20
2018-09-22T05:55:32.854Z,22.20
2018-09-22T05:56:04.883Z,22.10
2018-09-22T05:56:36.777Z,22.10
2018-09-22T05:57:08.738Z,22.10
2018-09-22T05:57:40.704Z,22.10
2018-09-22T05:58:12.644Z,22.10
2018-09-22T05:58:44.612Z,22.10
2018-09-22T05:59:16.552Z,22.20
2018-09-22T05:59:48.698Z,22.20
2018-09-22T06:00:20.553Z,22.20
2018-09-22T06:00:52.534Z,22.20
2018-09-22T06:01:24.549Z,22.20
2018-09-22T06:01:56.545Z,22.20
2018-09-22T06:02:28.444Z,22.20
2018-09-22T06:03:00.287Z,22.20
2018-09-22T06:03:32.425Z,22.10
2018-09-22T06:04:04.551Z,22.10
2018-09-22T06:04:36.573Z,22.10
2018-09-22T06:05:08.648Z,22.20
2018-09-22T06:05:40.446Z,22.20
2018-09-22T06:06:12.269Z,22.20
2018-09-22T06:06:44.088Z,22.20
2018-09-22T06:07:16.140Z,22.20
2018-09-22T06:07:48.004Z,22.20
2018-09-22T06:08:20.015Z,22.20
2018-09-22T06:08:51.841Z,22.20
2018-09-22T06:09:23.709Z,22.20
2018-09-22T06:09:55.779Z,22.20
2018-09-22T06:10:27.626Z,22.20
2018-09-22T06:10:59.572Z,22.20
2018-09-22T06:11:31.373Z,22.20
2018-09-22T06:12:03.249Z,22.20
2018-09-22T06:12:35.167Z,22.20
2018-09-22T06:13:06.985Z,22.20
2018-09-22T06:13:38.828Z,22.20
2018-09-22T06:14:10.635Z,22.20
2018-09-22T06:14:42.516Z,22.20
2018-09-22T06:15:14.357Z,22.20
2018-09-22T06:15:46.385Z,22.20
2018-09-22T06:16:18.226Z,22.20
2018-09-22T06:16:50.065Z,22.20
2018-09-22T06:17:21.894Z,22.10
2018-09-22T06:17:53.837Z,22.20
2018-09-22T06:18:25.735Z,22.20
2018-09-22T06:18:57.589Z,22.20
2018-09-22T06:19:29.573Z,22.20
2018-09-22T06:20:01.392Z,22.20
2018-09-22T06:20:33.213Z,22.20
2018-09-22T06:21:05.005Z,22.20
2018-09-22T06:21:36.908Z,22.20
2018-09-22T06:22:08.828Z,22.20
2018-09-22T06:22:40.672Z,22.20
2018-09-22T06:23:12.644Z,22.20
2018-09-22T06:23:44.815Z,22.20
2018-09-22T06:24:16.775Z,22.20
2018-09-22T06:24:48.548Z,22.20
2018-09-22T06:25:20.416Z,22.20
2018-09-22T06:25:52.308Z,22.10
2018-09-22T06:26:24.133Z,22.20
2018-09-22T06:26:56.104Z,22.20
2018-09-22T06:27:28.252Z,22.20
2018-09-22T06:28:00.154Z,22.20
2018-09-22T06:28:31.992Z,22.20
2018-09-22T06:29:03.781Z,22.20
2018-09-22T06:29:35.863Z,22.20
2018-09-22T06:30:07.930Z,22.20
2018-09-22T06:30:39.781Z,22.20
2018-09-22T06:31:11.756Z,22.20
2018-09-22T06:31:43.598Z,22.20
2018-09-22T06:32:15.582Z,22.20
2018-09-22T06:32:47.467Z,22.20
2018-09-22T06:33:19.297Z,22.20
2018-09-22T06:33:51.262Z,22.20
2018-09-22T06:34:23.087Z,22.20
2018-09-22T06:34:55.119Z,22.20
2018-09-22T06:35:26.970Z,22.20
2018-09-22T06:35:59.141Z,22.20
2018-09-22T06:36:30.994Z,22.20
2018-09-22T06:37:03.067Z,22.20
2018-09-22T06:37:34.949Z,22.20
2018-09-22T06:38:06.898Z,22.20
2018-09-22T06:38:38.674Z,22.10
2018-09-22T06:39:10.716Z,22.20
2018-09-22T06:39:42.557Z,22.20
2018-09-22T06:40:14.415Z,22.20
2018-09-22T06:40:46.256Z,22.20
2018-09-22T06:41:18.080Z,22.20
2018-09-22T06:41:49.971Z,22.20
2018-09-22T06:42:21.788Z,22.20
2018-09-22T06:42:53.665Z,22.20
2018-09-22T06:43:25.448Z,22.20
2018-09-22T06:43:57.311Z,22.20
2018-09-22T06:44:29.164Z,22.20
2018-09-22T06:45:01.067Z,22.20
2018-09-22T06:45:32.902Z,22.20
2018-09-22T06:46:04.774Z,22.20
2018-09-22T06:46:36.721Z,22.20
2018-09-22T06:47:08.550Z,22.10
2018-09-22T06:47:40.380Z,22.20
2018-09-22T06:48:12.211Z,22.20
2018-09-22T06:48:44.009Z,22.20
2018-09-22T06:49:15.954Z,22.10
2018-09-22T06:49:48.007Z,22.20
2018-09-22T06:50:19.820Z,22.20
2018-09-22T06:50:51.667Z,22.20